sensor_id;sensor_type;location;lat;lon;timestamp;pressure;altitude;pressure_sealevel;temperature;humidity
65394;BME280;52002;49.760;6.512;2023-07-09T00:01:49;100215.14;;;20.90;62.23
65394;BME280;52002;49.760;6.512;2023-07-09T00:04:15;100218.17;;;20.87;62.46
65394;BME280;52002;49.760;6.512;2023-07-09T00:06:41;100213.02;;;20.84;62.58
65394;BME280;52002;49.760;6.512;2023-07-09T00:09:13;100211.95;;;20.79;62.84
65394;BME280;52002;49.760;6.512;2023-07-09T00:11:40;100217.95;;;20.73;62.93
65394;BME280;52002;49.760;6.512;2023-07-09T00:14:06;100216.52;;;20.70;62.98
65394;BME280;52002;49.760;6.512;2023-07-09T00:16:31;100216.93;;;20.68;63.17
65394;BME280;52002;49.760;6.512;2023-07-09T00:18:56;100211.74;;;20.65;63.05
65394;BME280;52002;49.760;6.512;2023-07-09T00:21:22;100212.09;;;20.61;63.28
65394;BME280;52002;49.760;6.512;2023-07-09T00:23:48;100218.52;;;20.57;63.27
65394;BME280;52002;49.760;6.512;2023-07-09T00:26:18;100214.85;;;20.52;63.46
65394;BME280;52002;49.760;6.512;2023-07-09T00:28:48;100221.44;;;20.49;63.56
65394;BME280;52002;49.760;6.512;2023-07-09T00:31:15;100221.20;;;20.46;63.65
65394;BME280;52002;49.760;6.512;2023-07-09T00:33:45;100217.61;;;20.42;63.84
65394;BME280;52002;49.760;6.512;2023-07-09T00:36:16;100220.48;;;20.39;63.97
65394;BME280;52002;49.760;6.512;2023-07-09T00:38:43;100218.67;;;20.38;64.03
65394;BME280;52002;49.760;6.512;2023-07-09T00:41:16;100221.11;;;20.36;64.04
65394;BME280;52002;49.760;6.512;2023-07-09T00:43:43;100218.17;;;20.34;64.15
65394;BME280;52002;49.760;6.512;2023-07-09T00:48:56;100215.95;;;20.31;64.02
65394;BME280;52002;49.760;6.512;2023-07-09T00:51:24;100216.73;;;20.25;64.20
65394;BME280;52002;49.760;6.512;2023-07-09T00:53:55;100215.45;;;20.17;64.31
65394;BME280;52002;49.760;6.512;2023-07-09T00:56:32;100216.98;;;20.15;64.63
65394;BME280;52002;49.760;6.512;2023-07-09T00:59:02;100220.90;;;20.17;64.64
65394;BME280;52002;49.760;6.512;2023-07-09T01:01:30;100219.24;;;20.17;64.49
65394;BME280;52002;49.760;6.512;2023-07-09T01:03:59;100221.30;;;20.20;64.52
65394;BME280;52002;49.760;6.512;2023-07-09T01:06:50;100224.85;;;20.19;64.44
65394;BME280;52002;49.760;6.512;2023-07-09T01:09:17;100225.69;;;20.15;64.50
65394;BME280;52002;49.760;6.512;2023-07-09T01:11:42;100226.01;;;20.08;64.40
65394;BME280;52002;49.760;6.512;2023-07-09T01:14:11;100234.30;;;20.04;64.62
65394;BME280;52002;49.760;6.512;2023-07-09T01:16:46;100237.29;;;19.99;64.81
65394;BME280;52002;49.760;6.512;2023-07-09T01:19:12;100236.85;;;19.95;64.81
65394;BME280;52002;49.760;6.512;2023-07-09T01:21:39;100237.40;;;19.92;64.86
65394;BME280;52002;49.760;6.512;2023-07-09T01:24:16;100238.13;;;19.91;64.76
65394;BME280;52002;49.760;6.512;2023-07-09T01:27:01;100242.23;;;19.89;64.92
65394;BME280;52002;49.760;6.512;2023-07-09T01:29:31;100237.90;;;19.85;64.91
65394;BME280;52002;49.760;6.512;2023-07-09T01:31:59;100241.75;;;19.81;64.97
65394;BME280;52002;49.760;6.512;2023-07-09T01:34:25;100240.41;;;19.79;65.09
65394;BME280;52002;49.760;6.512;2023-07-09T01:36:50;100241.70;;;19.79;65.00
65394;BME280;52002;49.760;6.512;2023-07-09T01:39:16;100241.98;;;19.78;65.00
65394;BME280;52002;49.760;6.512;2023-07-09T01:41:42;100244.69;;;19.75;65.06
65394;BME280;52002;49.760;6.512;2023-07-09T01:44:07;100249.21;;;19.74;65.09
65394;BME280;52002;49.760;6.512;2023-07-09T01:46:33;100250.77;;;19.68;65.23
65394;BME280;52002;49.760;6.512;2023-07-09T01:48:58;100248.46;;;19.67;65.29
65394;BME280;52002;49.760;6.512;2023-07-09T01:51:24;100249.02;;;19.64;65.24
65394;BME280;52002;49.760;6.512;2023-07-09T01:53:50;100249.42;;;19.59;65.14
65394;BME280;52002;49.760;6.512;2023-07-09T01:56:16;100247.84;;;19.59;65.30
65394;BME280;52002;49.760;6.512;2023-07-09T01:58:41;100249.00;;;19.59;65.39
65394;BME280;52002;49.760;6.512;2023-07-09T02:01:07;100250.98;;;19.60;65.56
65394;BME280;52002;49.760;6.512;2023-07-09T02:03:33;100252.29;;;19.55;65.56
65394;BME280;52002;49.760;6.512;2023-07-09T02:05:59;100253.23;;;19.47;65.82
65394;BME280;52002;49.760;6.512;2023-07-09T02:08:25;100253.68;;;19.43;66.03
65394;BME280;52002;49.760;6.512;2023-07-09T02:10:50;100257.33;;;19.41;66.00
65394;BME280;52002;49.760;6.512;2023-07-09T02:13:16;100258.88;;;19.39;66.06
65394;BME280;52002;49.760;6.512;2023-07-09T02:15:44;100256.04;;;19.36;66.21
65394;BME280;52002;49.760;6.512;2023-07-09T02:18:11;100253.89;;;19.34;66.34
65394;BME280;52002;49.760;6.512;2023-07-09T02:20:36;100254.53;;;19.31;66.27
65394;BME280;52002;49.760;6.512;2023-07-09T02:23:02;100257.95;;;19.27;66.44
65394;BME280;52002;49.760;6.512;2023-07-09T02:25:28;100255.91;;;19.24;66.45
65394;BME280;52002;49.760;6.512;2023-07-09T02:27:53;100256.69;;;19.24;66.52
65394;BME280;52002;49.760;6.512;2023-07-09T02:30:18;100255.02;;;19.24;66.61
65394;BME280;52002;49.760;6.512;2023-07-09T02:32:44;100257.38;;;19.23;66.55
65394;BME280;52002;49.760;6.512;2023-07-09T02:35:09;100255.48;;;19.22;66.62
65394;BME280;52002;49.760;6.512;2023-07-09T02:37:35;100258.48;;;19.21;66.71
65394;BME280;52002;49.760;6.512;2023-07-09T02:40:00;100260.14;;;19.21;66.70
65394;BME280;52002;49.760;6.512;2023-07-09T02:42:25;100263.20;;;19.18;66.60
65394;BME280;52002;49.760;6.512;2023-07-09T02:44:51;100265.35;;;19.15;66.66
65394;BME280;52002;49.760;6.512;2023-07-09T02:47:18;100267.62;;;19.14;66.81
65394;BME280;52002;49.760;6.512;2023-07-09T02:49:43;100269.98;;;19.13;66.73
65394;BME280;52002;49.760;6.512;2023-07-09T02:52:09;100269.16;;;19.10;66.78
65394;BME280;52002;49.760;6.512;2023-07-09T02:54:34;100269.45;;;19.10;66.75
65394;BME280;52002;49.760;6.512;2023-07-09T02:57:00;100268.42;;;19.11;66.67
65394;BME280;52002;49.760;6.512;2023-07-09T02:59:26;100276.09;;;19.09;66.67
65394;BME280;52002;49.760;6.512;2023-07-09T03:01:55;100274.75;;;19.06;66.60
65394;BME280;52002;49.760;6.512;2023-07-09T03:04:21;100275.42;;;19.04;66.71
65394;BME280;52002;49.760;6.512;2023-07-09T03:06:46;100281.70;;;19.03;66.75
65394;BME280;52002;49.760;6.512;2023-07-09T03:09:12;100280.36;;;19.00;66.73
65394;BME280;52002;49.760;6.512;2023-07-09T03:11:37;100286.41;;;18.98;66.66
65394;BME280;52002;49.760;6.512;2023-07-09T03:14:03;100282.50;;;18.95;66.89
65394;BME280;52002;49.760;6.512;2023-07-09T03:16:31;100286.10;;;18.92;66.85
65394;BME280;52002;49.760;6.512;2023-07-09T03:18:57;100285.11;;;18.88;66.85
65394;BME280;52002;49.760;6.512;2023-07-09T03:21:24;100288.87;;;18.86;66.91
65394;BME280;52002;49.760;6.512;2023-07-09T03:23:50;100289.27;;;18.84;66.81
65394;BME280;52002;49.760;6.512;2023-07-09T03:26:16;100289.37;;;18.81;66.92
65394;BME280;52002;49.760;6.512;2023-07-09T03:28:41;100292.25;;;18.79;67.02
65394;BME280;52002;49.760;6.512;2023-07-09T03:31:07;100294.30;;;18.77;67.02
65394;BME280;52002;49.760;6.512;2023-07-09T03:33:32;100293.01;;;18.74;67.13
65394;BME280;52002;49.760;6.512;2023-07-09T03:35:58;100296.65;;;18.71;67.16
65394;BME280;52002;49.760;6.512;2023-07-09T03:38:23;100298.27;;;18.68;67.17
65394;BME280;52002;49.760;6.512;2023-07-09T03:40:53;100303.94;;;18.66;67.30
65394;BME280;52002;49.760;6.512;2023-07-09T03:43:19;100304.34;;;18.64;67.31
65394;BME280;52002;49.760;6.512;2023-07-09T03:45:45;100305.32;;;18.61;67.41
65394;BME280;52002;49.760;6.512;2023-07-09T03:48:11;100303.23;;;18.57;67.41
65394;BME280;52002;49.760;6.512;2023-07-09T03:50:37;100301.19;;;18.58;67.49
65394;BME280;52002;49.760;6.512;2023-07-09T03:53:03;100304.36;;;18.58;67.60
65394;BME280;52002;49.760;6.512;2023-07-09T03:55:30;100303.61;;;18.60;67.62
65394;BME280;52002;49.760;6.512;2023-07-09T03:57:56;100309.91;;;18.62;67.56
65394;BME280;52002;49.760;6.512;2023-07-09T04:00:22;100312.55;;;18.64;67.58
65394;BME280;52002;49.760;6.512;2023-07-09T04:02:48;100313.25;;;18.65;67.54
65394;BME280;52002;49.760;6.512;2023-07-09T04:05:14;100315.54;;;18.68;67.54
65394;BME280;52002;49.760;6.512;2023-07-09T04:07:39;100311.45;;;18.69;67.39
65394;BME280;52002;49.760;6.512;2023-07-09T04:10:05;100314.08;;;18.71;67.37
65394;BME280;52002;49.760;6.512;2023-07-09T04:12:31;100312.59;;;18.71;67.40
65394;BME280;52002;49.760;6.512;2023-07-09T04:14:57;100313.83;;;18.70;67.34
65394;BME280;52002;49.760;6.512;2023-07-09T04:17:22;100314.36;;;18.72;67.29
65394;BME280;52002;49.760;6.512;2023-07-09T04:19:49;100313.27;;;18.76;67.24
65394;BME280;52002;49.760;6.512;2023-07-09T04:22:14;100314.11;;;18.83;67.31
65394;BME280;52002;49.760;6.512;2023-07-09T04:24:39;100314.84;;;18.89;67.18
65394;BME280;52002;49.760;6.512;2023-07-09T04:27:05;100314.19;;;18.96;67.12
65394;BME280;52002;49.760;6.512;2023-07-09T04:29:31;100311.34;;;19.04;66.97
65394;BME280;52002;49.760;6.512;2023-07-09T04:31:59;100311.88;;;19.08;66.86
65394;BME280;52002;49.760;6.512;2023-07-09T04:34:24;100313.61;;;19.13;66.73
65394;BME280;52002;49.760;6.512;2023-07-09T04:36:50;100312.35;;;19.18;66.60
65394;BME280;52002;49.760;6.512;2023-07-09T04:39:15;100308.70;;;19.22;66.48
65394;BME280;52002;49.760;6.512;2023-07-09T04:41:40;100309.54;;;19.23;66.31
65394;BME280;52002;49.760;6.512;2023-07-09T04:44:06;100309.98;;;19.24;66.25
65394;BME280;52002;49.760;6.512;2023-07-09T04:46:31;100312.73;;;19.22;66.34
65394;BME280;52002;49.760;6.512;2023-07-09T04:48:57;100314.74;;;19.22;66.38
65394;BME280;52002;49.760;6.512;2023-07-09T04:51:22;100316.61;;;19.21;66.45
65394;BME280;52002;49.760;6.512;2023-07-09T04:53:47;100312.46;;;19.22;66.59
65394;BME280;52002;49.760;6.512;2023-07-09T04:56:17;100308.34;;;19.22;66.68
65394;BME280;52002;49.760;6.512;2023-07-09T04:58:43;100307.44;;;19.30;66.76
65394;BME280;52002;49.760;6.512;2023-07-09T05:01:08;100307.52;;;19.38;66.73
65394;BME280;52002;49.760;6.512;2023-07-09T05:03:34;100306.34;;;19.45;66.61
65394;BME280;52002;49.760;6.512;2023-07-09T05:05:59;100311.77;;;19.54;66.50
65394;BME280;52002;49.760;6.512;2023-07-09T05:08:24;100310.41;;;19.59;66.30
65394;BME280;52002;49.760;6.512;2023-07-09T05:10:51;100311.02;;;19.60;66.17
65394;BME280;52002;49.760;6.512;2023-07-09T05:13:18;100310.77;;;19.61;66.23
65394;BME280;52002;49.760;6.512;2023-07-09T05:15:45;100313.02;;;19.67;66.28
65394;BME280;52002;49.760;6.512;2023-07-09T05:18:12;100316.14;;;19.79;66.22
65394;BME280;52002;49.760;6.512;2023-07-09T05:20:39;100311.23;;;19.90;66.03
65394;BME280;52002;49.760;6.512;2023-07-09T05:23:05;100315.48;;;20.02;65.85
65394;BME280;52002;49.760;6.512;2023-07-09T05:25:30;100317.54;;;20.17;65.72
65394;BME280;52002;49.760;6.512;2023-07-09T05:27:55;100316.32;;;20.42;65.38
65394;BME280;52002;49.760;6.512;2023-07-09T05:30:21;100308.42;;;21.39;63.96
65394;BME280;52002;49.760;6.512;2023-07-09T05:32:47;100314.06;;;23.67;60.96
65394;BME280;52002;49.760;6.512;2023-07-09T05:35:13;100314.63;;;25.93;57.29
65394;BME280;52002;49.760;6.512;2023-07-09T05:37:39;100316.88;;;27.95;53.54
65394;BME280;52002;49.760;6.512;2023-07-09T05:40:06;100319.98;;;29.68;50.09
65394;BME280;52002;49.760;6.512;2023-07-09T05:42:32;100322.09;;;31.28;46.90
65394;BME280;52002;49.760;6.512;2023-07-09T05:44:58;100323.38;;;32.72;44.06
65394;BME280;52002;49.760;6.512;2023-07-09T05:47:24;100327.27;;;34.09;41.54
65394;BME280;52002;49.760;6.512;2023-07-09T05:49:50;100330.46;;;35.38;39.36
65394;BME280;52002;49.760;6.512;2023-07-09T05:52:20;100332.80;;;36.42;36.96
65394;BME280;52002;49.760;6.512;2023-07-09T05:54:48;100334.63;;;37.26;34.77
65394;BME280;52002;49.760;6.512;2023-07-09T05:57:14;100338.05;;;38.01;33.48
65394;BME280;52002;49.760;6.512;2023-07-09T05:59:40;100334.14;;;38.93;32.25
65394;BME280;52002;49.760;6.512;2023-07-09T06:02:10;100337.98;;;39.89;30.93
65394;BME280;52002;49.760;6.512;2023-07-09T06:04:35;100332.55;;;40.72;29.44
65394;BME280;52002;49.760;6.512;2023-07-09T06:07:00;100327.50;;;41.51;28.49
65394;BME280;52002;49.760;6.512;2023-07-09T06:09:25;100327.96;;;42.00;27.15
65394;BME280;52002;49.760;6.512;2023-07-09T06:11:51;100330.01;;;42.69;26.53
65394;BME280;52002;49.760;6.512;2023-07-09T06:14:17;100328.91;;;43.39;25.74
65394;BME280;52002;49.760;6.512;2023-07-09T06:16:43;100326.20;;;44.13;24.61
65394;BME280;52002;49.760;6.512;2023-07-09T06:19:09;100323.33;;;44.61;23.66
65394;BME280;52002;49.760;6.512;2023-07-09T06:21:34;100316.23;;;45.03;23.01
65394;BME280;52002;49.760;6.512;2023-07-09T06:24:00;100318.69;;;45.31;22.21
65394;BME280;52002;49.760;6.512;2023-07-09T06:26:25;100317.19;;;45.75;21.82
65394;BME280;52002;49.760;6.512;2023-07-09T06:28:50;100321.63;;;46.26;21.48
65394;BME280;52002;49.760;6.512;2023-07-09T06:31:16;100326.00;;;46.83;21.27
65394;BME280;52002;49.760;6.512;2023-07-09T06:33:41;100323.09;;;47.67;20.66
65394;BME280;52002;49.760;6.512;2023-07-09T06:36:08;100318.31;;;48.44;19.76
65394;BME280;52002;49.760;6.512;2023-07-09T06:38:33;100320.18;;;49.19;19.01
65394;BME280;52002;49.760;6.512;2023-07-09T06:40:59;100320.73;;;49.86;18.60
65394;BME280;52002;49.760;6.512;2023-07-09T06:43:24;100320.95;;;50.58;18.19
65394;BME280;52002;49.760;6.512;2023-07-09T06:45:52;100323.54;;;51.23;17.50
65394;BME280;52002;49.760;6.512;2023-07-09T06:48:18;100317.60;;;51.81;16.83
65394;BME280;52002;49.760;6.512;2023-07-09T06:50:44;100310.97;;;52.26;16.32
65394;BME280;52002;49.760;6.512;2023-07-09T06:53:09;100307.66;;;52.67;15.70
65394;BME280;52002;49.760;6.512;2023-07-09T06:55:35;100308.29;;;52.93;15.71
65394;BME280;52002;49.760;6.512;2023-07-09T06:58:00;100311.45;;;53.19;15.49
65394;BME280;52002;49.760;6.512;2023-07-09T07:00:26;100309.55;;;53.58;14.84
65394;BME280;52002;49.760;6.512;2023-07-09T07:02:51;100313.41;;;54.06;14.68
65394;BME280;52002;49.760;6.512;2023-07-09T07:05:17;100313.01;;;54.55;13.84
65394;BME280;52002;49.760;6.512;2023-07-09T07:07:43;100306.27;;;54.91;13.76
65394;BME280;52002;49.760;6.512;2023-07-09T07:10:10;100299.73;;;55.10;13.66
65394;BME280;52002;49.760;6.512;2023-07-09T07:12:44;100300.54;;;55.44;13.08
65394;BME280;52002;49.760;6.512;2023-07-09T07:15:11;100301.47;;;55.75;13.06
65394;BME280;52002;49.760;6.512;2023-07-09T07:17:38;100302.63;;;56.14;12.74
65394;BME280;52002;49.760;6.512;2023-07-09T07:20:05;100297.46;;;56.58;12.79
65394;BME280;52002;49.760;6.512;2023-07-09T07:22:30;100295.43;;;57.02;12.33
65394;BME280;52002;49.760;6.512;2023-07-09T07:24:56;100287.79;;;57.25;12.08
65394;BME280;52002;49.760;6.512;2023-07-09T07:27:21;100283.15;;;57.26;11.92
65394;BME280;52002;49.760;6.512;2023-07-09T07:29:46;100285.20;;;57.54;11.86
65394;BME280;52002;49.760;6.512;2023-07-09T07:32:12;100286.84;;;57.98;11.51
65394;BME280;52002;49.760;6.512;2023-07-09T07:34:37;100290.68;;;58.41;11.52
65394;BME280;52002;49.760;6.512;2023-07-09T07:37:03;100288.52;;;58.76;11.15
65394;BME280;52002;49.760;6.512;2023-07-09T07:39:28;100286.98;;;59.15;11.34
65394;BME280;52002;49.760;6.512;2023-07-09T07:41:54;100280.74;;;59.64;11.04
65394;BME280;52002;49.760;6.512;2023-07-09T07:44:21;100276.20;;;59.98;10.86
65394;BME280;52002;49.760;6.512;2023-07-09T07:46:47;100273.17;;;60.20;10.58
65394;BME280;52002;49.760;6.512;2023-07-09T07:49:12;100274.17;;;60.22;10.49
65394;BME280;52002;49.760;6.512;2023-07-09T07:51:38;100276.19;;;60.27;10.45
65394;BME280;52002;49.760;6.512;2023-07-09T07:54:04;100278.48;;;60.39;10.42
65394;BME280;52002;49.760;6.512;2023-07-09T07:56:30;100276.42;;;60.53;10.45
65394;BME280;52002;49.760;6.512;2023-07-09T07:58:55;100270.35;;;60.54;10.43
65394;BME280;52002;49.760;6.512;2023-07-09T08:01:20;100270.04;;;60.52;10.30
65394;BME280;52002;49.760;6.512;2023-07-09T08:03:46;100276.15;;;60.43;10.46
65394;BME280;52002;49.760;6.512;2023-07-09T08:06:11;100269.23;;;60.30;10.55
65394;BME280;52002;49.760;6.512;2023-07-09T08:08:37;100262.15;;;60.14;10.45
65394;BME280;52002;49.760;6.512;2023-07-09T08:11:05;100252.70;;;60.00;10.55
65394;BME280;52002;49.760;6.512;2023-07-09T08:13:36;100252.09;;;59.84;10.64
65394;BME280;52002;49.760;6.512;2023-07-09T08:16:02;100245.95;;;59.63;10.59
65394;BME280;52002;49.760;6.512;2023-07-09T08:18:28;100241.54;;;59.41;10.51
65394;BME280;52002;49.760;6.512;2023-07-09T08:20:53;100238.90;;;59.23;10.95
65394;BME280;52002;49.760;6.512;2023-07-09T08:23:19;100235.60;;;59.08;10.73
65394;BME280;52002;49.760;6.512;2023-07-09T08:25:52;100237.48;;;58.90;11.20
65394;BME280;52002;49.760;6.512;2023-07-09T08:28:18;100236.28;;;58.79;11.01
65394;BME280;52002;49.760;6.512;2023-07-09T08:30:44;100231.80;;;58.70;11.29
65394;BME280;52002;49.760;6.512;2023-07-09T08:33:09;100225.67;;;58.62;11.06
65394;BME280;52002;49.760;6.512;2023-07-09T08:35:35;100220.63;;;58.47;10.82
65394;BME280;52002;49.760;6.512;2023-07-09T08:38:00;100217.46;;;58.29;11.21
65394;BME280;52002;49.760;6.512;2023-07-09T08:40:26;100220.21;;;58.10;11.55
65394;BME280;52002;49.760;6.512;2023-07-09T08:42:59;100217.45;;;57.87;11.48
65394;BME280;52002;49.760;6.512;2023-07-09T08:48:47;100200.00;;;57.20;11.55
65394;BME280;52002;49.760;6.512;2023-07-09T08:50:56;100193.96;;;56.93;11.63
65394;BME280;52002;49.760;6.512;2023-07-09T08:53:39;100187.94;;;56.55;11.65
65394;BME280;52002;49.760;6.512;2023-07-09T08:56:09;100183.86;;;56.09;11.73
65394;BME280;52002;49.760;6.512;2023-07-09T08:58:36;100178.80;;;55.53;12.03
65394;BME280;52002;49.760;6.512;2023-07-09T09:01:05;100170.91;;;54.66;12.41
65394;BME280;52002;49.760;6.512;2023-07-09T09:03:44;100165.33;;;53.02;13.26
65394;BME280;52002;49.760;6.512;2023-07-09T09:06:20;100161.81;;;50.91;14.60
65394;BME280;52002;49.760;6.512;2023-07-09T09:11:25;100154.31;;;47.21;17.24
65394;BME280;52002;49.760;6.512;2023-07-09T09:13:56;100153.27;;;45.72;18.53
65394;BME280;52002;49.760;6.512;2023-07-09T09:16:36;100149.55;;;44.55;19.57
65394;BME280;52002;49.760;6.512;2023-07-09T09:19:15;100150.27;;;43.47;20.57
65394;BME280;52002;49.760;6.512;2023-07-09T09:21:43;100143.83;;;42.30;21.30
65394;BME280;52002;49.760;6.512;2023-07-09T09:24:17;100141.02;;;41.33;22.43
65394;BME280;52002;49.760;6.512;2023-07-09T09:26:44;100130.40;;;40.47;22.88
65394;BME280;52002;49.760;6.512;2023-07-09T09:29:12;100134.23;;;39.78;24.34
65394;BME280;52002;49.760;6.512;2023-07-09T09:31:37;100135.16;;;39.14;24.54
65394;BME280;52002;49.760;6.512;2023-07-09T09:34:03;100133.47;;;38.60;25.52
65394;BME280;52002;49.760;6.512;2023-07-09T09:36:30;100133.90;;;38.13;25.92
65394;BME280;52002;49.760;6.512;2023-07-09T09:39:01;100131.52;;;37.69;26.22
65394;BME280;52002;49.760;6.512;2023-07-09T09:41:30;100131.94;;;37.29;26.62
65394;BME280;52002;49.760;6.512;2023-07-09T09:43:59;100126.45;;;36.93;26.93
65394;BME280;52002;49.760;6.512;2023-07-09T09:46:26;100128.48;;;36.64;27.23
65394;BME280;52002;49.760;6.512;2023-07-09T09:48:58;100128.42;;;36.41;27.95
65394;BME280;52002;49.760;6.512;2023-07-09T09:51:24;100130.70;;;36.20;27.96
65394;BME280;52002;49.760;6.512;2023-07-09T09:53:51;100132.76;;;36.04;28.04
65394;BME280;52002;49.760;6.512;2023-07-09T09:56:24;100132.17;;;35.85;27.97
65394;BME280;52002;49.760;6.512;2023-07-09T09:58:53;100135.79;;;35.68;28.16
65394;BME280;52002;49.760;6.512;2023-07-09T10:01:28;100130.99;;;35.58;28.37
65394;BME280;52002;49.760;6.512;2023-07-09T10:03:57;100135.52;;;35.50;28.44
65394;BME280;52002;49.760;6.512;2023-07-09T10:06:46;100130.48;;;35.38;28.52
65394;BME280;52002;49.760;6.512;2023-07-09T10:09:26;100127.14;;;35.37;29.01
65394;BME280;52002;49.760;6.512;2023-07-09T10:12:00;100126.43;;;35.39;29.08
65394;BME280;52002;49.760;6.512;2023-07-09T10:17:36;100122.58;;;35.34;27.76
65394;BME280;52002;49.760;6.512;2023-07-09T10:20:23;100122.96;;;35.42;28.33
65394;BME280;52002;49.760;6.512;2023-07-09T10:25:35;100125.73;;;35.59;27.68
65394;BME280;52002;49.760;6.512;2023-07-09T10:28:34;100128.33;;;35.66;27.60
65394;BME280;52002;49.760;6.512;2023-07-09T10:31:12;100117.91;;;35.75;27.41
65394;BME280;52002;49.760;6.512;2023-07-09T10:36:44;100127.16;;;35.83;27.85
65394;BME280;52002;49.760;6.512;2023-07-09T10:39:19;100124.78;;;35.88;28.09
65394;BME280;52002;49.760;6.512;2023-07-09T10:41:49;100125.04;;;35.93;27.82
65394;BME280;52002;49.760;6.512;2023-07-09T10:44:21;100123.49;;;35.97;27.69
65394;BME280;52002;49.760;6.512;2023-07-09T10:46:52;100127.95;;;35.96;27.80
65394;BME280;52002;49.760;6.512;2023-07-09T10:49:21;100126.69;;;35.96;27.35
65394;BME280;52002;49.760;6.512;2023-07-09T10:51:57;100131.16;;;35.97;27.20
65394;BME280;52002;49.760;6.512;2023-07-09T10:54:35;100122.80;;;35.99;26.98
65394;BME280;52002;49.760;6.512;2023-07-09T10:57:20;100127.14;;;36.01;27.03
65394;BME280;52002;49.760;6.512;2023-07-09T10:59:49;100124.73;;;36.00;27.09
65394;BME280;52002;49.760;6.512;2023-07-09T11:02:25;100127.35;;;36.08;26.95
65394;BME280;52002;49.760;6.512;2023-07-09T11:04:56;100124.45;;;36.18;26.70
65394;BME280;52002;49.760;6.512;2023-07-09T11:07:33;100121.27;;;36.19;26.50
65394;BME280;52002;49.760;6.512;2023-07-09T11:10:04;100118.64;;;36.17;26.34
65394;BME280;52002;49.760;6.512;2023-07-09T11:12:43;100119.23;;;36.18;26.59
65394;BME280;52002;49.760;6.512;2023-07-09T11:15:13;100118.59;;;36.22;26.36
65394;BME280;52002;49.760;6.512;2023-07-09T11:17:40;100107.80;;;36.26;26.51
65394;BME280;52002;49.760;6.512;2023-07-09T11:20:18;100100.56;;;36.32;26.66
65394;BME280;52002;49.760;6.512;2023-07-09T11:22:52;100099.89;;;36.43;26.35
65394;BME280;52002;49.760;6.512;2023-07-09T11:25:49;100096.98;;;36.55;26.63
65394;BME280;52002;49.760;6.512;2023-07-09T11:28:13;100095.84;;;36.61;26.68
65394;BME280;52002;49.760;6.512;2023-07-09T11:30:50;100098.04;;;36.68;26.58
65394;BME280;52002;49.760;6.512;2023-07-09T11:33:26;100092.09;;;36.72;26.83
65394;BME280;52002;49.760;6.512;2023-07-09T11:36:05;100087.16;;;36.80;25.91
65394;BME280;52002;49.760;6.512;2023-07-09T11:38:43;100079.71;;;36.82;25.35
65394;BME280;52002;49.760;6.512;2023-07-09T11:47:00;100080.19;;;36.62;25.57
65394;BME280;52002;49.760;6.512;2023-07-09T11:49:38;100081.27;;;36.65;26.10
65394;BME280;52002;49.760;6.512;2023-07-09T11:52:07;100079.89;;;36.73;25.63
65394;BME280;52002;49.760;6.512;2023-07-09T11:54:36;100075.05;;;36.73;25.15
65394;BME280;52002;49.760;6.512;2023-07-09T11:57:02;100071.67;;;36.71;24.87
65394;BME280;52002;49.760;6.512;2023-07-09T11:59:29;100065.95;;;36.68;25.00
65394;BME280;52002;49.760;6.512;2023-07-09T12:01:54;100056.89;;;36.70;25.12
65394;BME280;52002;49.760;6.512;2023-07-09T12:04:31;100054.63;;;36.74;25.41
65394;BME280;52002;49.760;6.512;2023-07-09T12:06:59;100048.41;;;36.71;25.81
65394;BME280;52002;49.760;6.512;2023-07-09T12:09:30;100044.05;;;36.65;25.96
65394;BME280;52002;49.760;6.512;2023-07-09T12:11:57;100040.55;;;36.63;26.12
65394;BME280;52002;49.760;6.512;2023-07-09T12:14:22;100036.02;;;36.60;25.94
65394;BME280;52002;49.760;6.512;2023-07-09T12:16:51;100031.89;;;36.58;26.03
65394;BME280;52002;49.760;6.512;2023-07-09T12:19:23;100030.59;;;36.65;26.28
65394;BME280;52002;49.760;6.512;2023-07-09T12:21:52;100027.94;;;36.74;25.86
65394;BME280;52002;49.760;6.512;2023-07-09T12:24:21;100026.98;;;36.85;25.20
65394;BME280;52002;49.760;6.512;2023-07-09T12:26:59;100027.00;;;36.94;25.17
65394;BME280;52002;49.760;6.512;2023-07-09T12:29:29;100017.97;;;37.03;24.98
65394;BME280;52002;49.760;6.512;2023-07-09T12:31:59;100017.36;;;37.09;24.81
65394;BME280;52002;49.760;6.512;2023-07-09T12:34:25;100014.20;;;37.20;24.33
65394;BME280;52002;49.760;6.512;2023-07-09T12:36:52;100013.42;;;37.27;24.43
65394;BME280;52002;49.760;6.512;2023-07-09T12:39:25;100013.31;;;37.34;24.54
65394;BME280;52002;49.760;6.512;2023-07-09T12:41:55;100007.83;;;37.45;24.78
65394;BME280;52002;49.760;6.512;2023-07-09T12:44:22;100001.20;;;37.50;24.73
65394;BME280;52002;49.760;6.512;2023-07-09T12:46:49;100002.88;;;37.44;24.50
65394;BME280;52002;49.760;6.512;2023-07-09T12:49:24;100001.40;;;37.36;24.27
65394;BME280;52002;49.760;6.512;2023-07-09T12:51:51;100003.80;;;37.18;24.04
65394;BME280;52002;49.760;6.512;2023-07-09T12:54:20;100005.15;;;37.01;23.75
65394;BME280;52002;49.760;6.512;2023-07-09T12:56:53;100006.06;;;36.80;23.76
65394;BME280;52002;49.760;6.512;2023-07-09T13:04:29;100036.86;;;35.91;25.05
65394;BME280;52002;49.760;6.512;2023-07-09T13:06:54;100033.93;;;35.57;25.67
65394;BME280;52002;49.760;6.512;2023-07-09T13:09:25;100036.55;;;35.24;26.05
65394;BME280;52002;49.760;6.512;2023-07-09T13:11:51;100030.23;;;34.89;26.25
65394;BME280;52002;49.760;6.512;2023-07-09T13:14:30;100032.86;;;34.59;26.74
65394;BME280;52002;49.760;6.512;2023-07-09T13:17:07;100022.45;;;34.29;27.18
65394;BME280;52002;49.760;6.512;2023-07-09T13:19:33;100012.39;;;34.03;27.88
65394;BME280;52002;49.760;6.512;2023-07-09T13:21:59;100017.04;;;33.86;28.62
65394;BME280;52002;49.760;6.512;2023-07-09T13:24:28;100024.41;;;33.74;29.68